Detailed System and Site Information

System Data Health
Measure Timestamp Ago Health
Web Server Live 03:34:21, 3rd July 2015 0 s health
Last live-data upload from local system (nw3) 03:34:02, 3rd July 2015 19 s health
Last upload of secondary data 03:00:24, 3rd July 2015 34 mins health
Latest Webcam upload 03:33:08, 3rd July 2015 73 s health
Last upload of 24hr data log 03:29:08, 3rd July 2015 5 mins health
Last full data process 03:30:02, 3rd July 2015 4 mins health
Last data downtime (>15 mins) 21:46:01, 15th June 2015 17 days
Local System and Site Information
Measure Value
WD Version & Build # 10.37R - 40
WD Start Time 21:54 15/06/15
WD Data Count 514371
WD Memory Use 92,856 K
--- ---
Windows Uptime 17 Days 5 Hours 6 Minutes 59 Seconds
Free System Memory 2549 MB (Max: 4GB)
--- ---
Station Altitude 57 m (187 ft)
Station Latitude 51.556
Station Longitude -0.154
Machine Room Conditions
Measure Value
Temperature 24.2 °C
Temperature Trend -0.6 °C /hr
Relative Humidity 35%
Dew Point 7.8 °C
--- ---
Tmin Today 6.0 °C at 02:21
Tmax Today 25.9 °C at 00:00
Hmin Today 35% at 02:16
Hmax Today 37% at 00:00
Tmin Yesterday 25.9 °C at 23:55
Tmax Yesterday 29.4 °C at 00:37

Site owner and administrator: Ben Lee-Rodgers (2010 - present)

Last 10hrs Temp/Hum for Secondary Sensor and Indoors

Extra Sensors/Indoor

Other

Raw METAR from EGLL (Heathrow)

EGLL 030220Z 00000KT CAVOK 14/11 Q1025 NOSIG
Decode Instructions
Source

WD Screenshot

not available